sensor_id;sensor_type;location;lat;lon;timestamp;P1;durP1;ratioP1;P2;durP2;ratioP2
54959;SDS011;40860;51.710;8.736;2023-05-19T00:03:50;7.93;;;2.78;;
54959;SDS011;40860;51.710;8.736;2023-05-19T00:07:54;8.02;;;2.53;;
54959;SDS011;40860;51.710;8.736;2023-05-19T00:12:00;4.47;;;2.33;;
54959;SDS011;40860;51.710;8.736;2023-05-19T00:16:04;8.55;;;2.50;;
54959;SDS011;40860;51.710;8.736;2023-05-19T00:20:09;6.10;;;2.40;;
54959;SDS011;40860;51.710;8.736;2023-05-19T00:24:13;4.28;;;2.25;;
54959;SDS011;40860;51.710;8.736;2023-05-19T00:28:17;6.05;;;2.15;;
54959;SDS011;40860;51.710;8.736;2023-05-19T00:32:20;5.35;;;2.38;;
54959;SDS011;40860;51.710;8.736;2023-05-19T00:36:25;4.95;;;2.35;;
54959;SDS011;40860;51.710;8.736;2023-05-19T00:40:29;7.13;;;2.95;;
54959;SDS011;40860;51.710;8.736;2023-05-19T00:44:34;5.70;;;2.28;;
54959;SDS011;40860;51.710;8.736;2023-05-19T00:48:39;6.47;;;2.42;;
54959;SDS011;40860;51.710;8.736;2023-05-19T00:52:43;4.65;;;2.30;;
54959;SDS011;40860;51.710;8.736;2023-05-19T00:56:46;5.60;;;2.40;;
54959;SDS011;40860;51.710;8.736;2023-05-19T01:00:50;3.95;;;2.30;;
54959;SDS011;40860;51.710;8.736;2023-05-19T01:04:53;7.00;;;2.65;;
54959;SDS011;40860;51.710;8.736;2023-05-19T01:08:59;6.90;;;2.50;;
54959;SDS011;40860;51.710;8.736;2023-05-19T01:13:02;8.88;;;2.28;;
54959;SDS011;40860;51.710;8.736;2023-05-19T01:17:06;7.10;;;2.35;;
54959;SDS011;40860;51.710;8.736;2023-05-19T01:21:36;3.72;;;2.25;;
54959;SDS011;40860;51.710;8.736;2023-05-19T01:26:14;6.60;;;2.88;;
54959;SDS011;40860;51.710;8.736;2023-05-19T01:30:33;7.38;;;2.35;;
54959;SDS011;40860;51.710;8.736;2023-05-19T01:34:41;4.25;;;2.47;;
54959;SDS011;40860;51.710;8.736;2023-05-19T01:38:45;6.80;;;3.05;;
54959;SDS011;40860;51.710;8.736;2023-05-19T01:42:51;7.20;;;2.60;;
54959;SDS011;40860;51.710;8.736;2023-05-19T01:47:00;6.40;;;2.47;;
54959;SDS011;40860;51.710;8.736;2023-05-19T01:51:03;8.52;;;3.35;;
54959;SDS011;40860;51.710;8.736;2023-05-19T01:55:07;6.15;;;2.55;;
54959;SDS011;40860;51.710;8.736;2023-05-19T01:59:15;7.15;;;2.78;;
54959;SDS011;40860;51.710;8.736;2023-05-19T02:03:36;6.28;;;2.53;;
54959;SDS011;40860;51.710;8.736;2023-05-19T02:07:58;6.05;;;2.72;;
54959;SDS011;40860;51.710;8.736;2023-05-19T02:12:10;4.47;;;2.45;;
54959;SDS011;40860;51.710;8.736;2023-05-19T02:16:18;6.15;;;2.55;;
54959;SDS011;40860;51.710;8.736;2023-05-19T02:20:26;8.30;;;3.00;;
54959;SDS011;40860;51.710;8.736;2023-05-19T02:24:29;9.18;;;2.70;;
54959;SDS011;40860;51.710;8.736;2023-05-19T02:28:32;7.97;;;2.67;;
54959;SDS011;40860;51.710;8.736;2023-05-19T02:32:36;10.43;;;2.80;;
54959;SDS011;40860;51.710;8.736;2023-05-19T02:36:41;5.60;;;2.70;;
54959;SDS011;40860;51.710;8.736;2023-05-19T02:40:44;3.42;;;2.40;;
54959;SDS011;40860;51.710;8.736;2023-05-19T02:44:47;3.90;;;1.95;;
54959;SDS011;40860;51.710;8.736;2023-05-19T02:48:51;5.43;;;2.20;;
54959;SDS011;40860;51.710;8.736;2023-05-19T02:52:55;4.40;;;2.50;;
54959;SDS011;40860;51.710;8.736;2023-05-19T02:56:58;6.93;;;2.50;;
54959;SDS011;40860;51.710;8.736;2023-05-19T03:01:01;5.40;;;2.58;;
54959;SDS011;40860;51.710;8.736;2023-05-19T03:05:05;5.35;;;2.60;;
54959;SDS011;40860;51.710;8.736;2023-05-19T03:09:11;5.32;;;2.55;;
54959;SDS011;40860;51.710;8.736;2023-05-19T03:13:15;5.63;;;2.70;;
54959;SDS011;40860;51.710;8.736;2023-05-19T03:17:18;7.75;;;2.63;;
54959;SDS011;40860;51.710;8.736;2023-05-19T03:21:21;5.97;;;3.10;;
54959;SDS011;40860;51.710;8.736;2023-05-19T03:25:26;3.25;;;2.55;;
54959;SDS011;40860;51.710;8.736;2023-05-19T03:29:30;5.45;;;2.60;;
54959;SDS011;40860;51.710;8.736;2023-05-19T03:33:33;5.63;;;2.90;;
54959;SDS011;40860;51.710;8.736;2023-05-19T03:37:36;4.38;;;3.08;;
54959;SDS011;40860;51.710;8.736;2023-05-19T03:41:40;5.00;;;2.92;;
54959;SDS011;40860;51.710;8.736;2023-05-19T03:45:43;5.00;;;3.00;;
54959;SDS011;40860;51.710;8.736;2023-05-19T03:50:06;5.70;;;3.05;;
54959;SDS011;40860;51.710;8.736;2023-05-19T03:54:21;5.47;;;2.80;;
54959;SDS011;40860;51.710;8.736;2023-05-19T03:58:25;5.88;;;2.92;;
54959;SDS011;40860;51.710;8.736;2023-05-19T04:02:30;7.10;;;3.08;;
54959;SDS011;40860;51.710;8.736;2023-05-19T04:06:33;4.95;;;2.65;;
54959;SDS011;40860;51.710;8.736;2023-05-19T04:10:36;9.68;;;3.30;;
54959;SDS011;40860;51.710;8.736;2023-05-19T04:14:40;6.93;;;3.10;;
54959;SDS011;40860;51.710;8.736;2023-05-19T04:18:43;8.60;;;2.78;;
54959;SDS011;40860;51.710;8.736;2023-05-19T04:22:48;8.02;;;3.10;;
54959;SDS011;40860;51.710;8.736;2023-05-19T04:26:51;6.32;;;3.15;;
54959;SDS011;40860;51.710;8.736;2023-05-19T04:30:55;7.40;;;3.00;;
54959;SDS011;40860;51.710;8.736;2023-05-19T04:34:59;5.13;;;2.83;;
54959;SDS011;40860;51.710;8.736;2023-05-19T04:39:03;6.20;;;3.15;;
54959;SDS011;40860;51.710;8.736;2023-05-19T04:43:09;5.05;;;3.22;;
54959;SDS011;40860;51.710;8.736;2023-05-19T04:47:14;5.38;;;3.00;;
54959;SDS011;40860;51.710;8.736;2023-05-19T04:51:18;7.30;;;3.63;;
54959;SDS011;40860;51.710;8.736;2023-05-19T04:55:22;5.47;;;3.10;;
54959;SDS011;40860;51.710;8.736;2023-05-19T04:59:25;6.93;;;3.20;;
54959;SDS011;40860;51.710;8.736;2023-05-19T05:03:30;5.72;;;3.65;;
54959;SDS011;40860;51.710;8.736;2023-05-19T05:07:34;7.82;;;3.30;;
54959;SDS011;40860;51.710;8.736;2023-05-19T05:11:37;6.75;;;3.53;;
54959;SDS011;40860;51.710;8.736;2023-05-19T05:15:42;6.43;;;3.70;;
54959;SDS011;40860;51.710;8.736;2023-05-19T05:19:48;4.05;;;2.90;;
54959;SDS011;40860;51.710;8.736;2023-05-19T05:23:52;5.93;;;3.50;;
54959;SDS011;40860;51.710;8.736;2023-05-19T05:27:58;9.73;;;3.85;;
54959;SDS011;40860;51.710;8.736;2023-05-19T05:32:06;6.90;;;3.28;;
54959;SDS011;40860;51.710;8.736;2023-05-19T05:36:11;6.55;;;3.30;;
54959;SDS011;40860;51.710;8.736;2023-05-19T05:40:14;6.43;;;3.40;;
54959;SDS011;40860;51.710;8.736;2023-05-19T05:44:17;7.68;;;3.60;;
54959;SDS011;40860;51.710;8.736;2023-05-19T05:48:21;5.80;;;3.05;;
54959;SDS011;40860;51.710;8.736;2023-05-19T05:52:26;8.90;;;3.42;;
54959;SDS011;40860;51.710;8.736;2023-05-19T05:56:34;6.90;;;3.25;;
54959;SDS011;40860;51.710;8.736;2023-05-19T06:00:41;5.57;;;3.28;;
54959;SDS011;40860;51.710;8.736;2023-05-19T06:04:45;8.30;;;3.50;;
54959;SDS011;40860;51.710;8.736;2023-05-19T06:08:49;5.93;;;3.30;;
54959;SDS011;40860;51.710;8.736;2023-05-19T06:12:53;4.95;;;3.10;;
54959;SDS011;40860;51.710;8.736;2023-05-19T06:16:57;5.75;;;3.20;;
54959;SDS011;40860;51.710;8.736;2023-05-19T06:21:02;7.38;;;3.03;;
54959;SDS011;40860;51.710;8.736;2023-05-19T06:25:07;8.52;;;3.22;;
54959;SDS011;40860;51.710;8.736;2023-05-19T06:29:10;9.68;;;3.05;;
54959;SDS011;40860;51.710;8.736;2023-05-19T06:33:13;8.80;;;3.33;;
54959;SDS011;40860;51.710;8.736;2023-05-19T06:37:16;9.15;;;2.95;;
54959;SDS011;40860;51.710;8.736;2023-05-19T06:41:21;7.97;;;3.28;;
54959;SDS011;40860;51.710;8.736;2023-05-19T06:45:25;6.72;;;3.22;;
54959;SDS011;40860;51.710;8.736;2023-05-19T06:49:30;5.65;;;3.25;;
54959;SDS011;40860;51.710;8.736;2023-05-19T06:53:33;7.78;;;3.20;;
54959;SDS011;40860;51.710;8.736;2023-05-19T06:57:42;6.47;;;2.90;;
54959;SDS011;40860;51.710;8.736;2023-05-19T07:01:46;6.07;;;2.47;;
54959;SDS011;40860;51.710;8.736;2023-05-19T07:05:50;11.07;;;2.75;;
54959;SDS011;40860;51.710;8.736;2023-05-19T07:09:53;6.25;;;2.05;;
54959;SDS011;40860;51.710;8.736;2023-05-19T07:13:58;4.57;;;1.88;;
54959;SDS011;40860;51.710;8.736;2023-05-19T07:18:04;5.53;;;2.45;;
54959;SDS011;40860;51.710;8.736;2023-05-19T07:22:13;5.38;;;1.70;;
54959;SDS011;40860;51.710;8.736;2023-05-19T07:26:16;6.65;;;1.88;;
54959;SDS011;40860;51.710;8.736;2023-05-19T07:30:21;4.25;;;1.83;;
54959;SDS011;40860;51.710;8.736;2023-05-19T07:34:24;4.78;;;2.17;;
54959;SDS011;40860;51.710;8.736;2023-05-19T07:38:27;5.82;;;2.15;;
54959;SDS011;40860;51.710;8.736;2023-05-19T07:42:31;7.45;;;2.15;;
54959;SDS011;40860;51.710;8.736;2023-05-19T07:46:38;6.25;;;2.10;;
54959;SDS011;40860;51.710;8.736;2023-05-19T07:50:41;3.50;;;1.70;;
54959;SDS011;40860;51.710;8.736;2023-05-19T07:54:44;4.68;;;2.00;;
54959;SDS011;40860;51.710;8.736;2023-05-19T07:58:47;5.40;;;2.20;;
54959;SDS011;40860;51.710;8.736;2023-05-19T08:02:52;2.55;;;1.70;;
54959;SDS011;40860;51.710;8.736;2023-05-19T08:06:59;5.13;;;2.00;;
54959;SDS011;40860;51.710;8.736;2023-05-19T08:11:02;4.25;;;2.00;;
54959;SDS011;40860;51.710;8.736;2023-05-19T08:15:05;3.63;;;1.98;;
54959;SDS011;40860;51.710;8.736;2023-05-19T08:19:13;5.10;;;2.08;;
54959;SDS011;40860;51.710;8.736;2023-05-19T08:23:16;3.92;;;1.92;;
54959;SDS011;40860;51.710;8.736;2023-05-19T08:27:19;4.53;;;2.15;;
54959;SDS011;40860;51.710;8.736;2023-05-19T08:31:22;4.32;;;1.88;;
54959;SDS011;40860;51.710;8.736;2023-05-19T08:35:27;4.80;;;1.85;;
54959;SDS011;40860;51.710;8.736;2023-05-19T08:39:30;3.55;;;1.67;;
54959;SDS011;40860;51.710;8.736;2023-05-19T08:43:34;2.95;;;1.33;;
54959;SDS011;40860;51.710;8.736;2023-05-19T08:47:37;3.45;;;1.73;;
54959;SDS011;40860;51.710;8.736;2023-05-19T08:51:43;4.88;;;1.83;;
54959;SDS011;40860;51.710;8.736;2023-05-19T08:55:53;4.07;;;1.92;;
54959;SDS011;40860;51.710;8.736;2023-05-19T09:00:02;4.60;;;2.20;;
54959;SDS011;40860;51.710;8.736;2023-05-19T09:04:09;4.72;;;1.73;;
54959;SDS011;40860;51.710;8.736;2023-05-19T09:08:13;4.57;;;1.95;;
54959;SDS011;40860;51.710;8.736;2023-05-19T09:12:16;4.93;;;2.17;;
54959;SDS011;40860;51.710;8.736;2023-05-19T09:16:20;3.33;;;1.73;;
54959;SDS011;40860;51.710;8.736;2023-05-19T09:20:23;3.33;;;1.75;;
54959;SDS011;40860;51.710;8.736;2023-05-19T09:24:27;3.97;;;2.30;;
54959;SDS011;40860;51.710;8.736;2023-05-19T09:28:33;4.18;;;1.65;;
54959;SDS011;40860;51.710;8.736;2023-05-19T09:32:36;4.30;;;1.90;;
54959;SDS011;40860;51.710;8.736;2023-05-19T09:36:42;3.63;;;1.75;;
54959;SDS011;40860;51.710;8.736;2023-05-19T09:40:48;5.63;;;2.30;;
54959;SDS011;40860;51.710;8.736;2023-05-19T09:44:59;5.32;;;1.95;;
54959;SDS011;40860;51.710;8.736;2023-05-19T09:49:07;7.30;;;2.40;;
54959;SDS011;40860;51.710;8.736;2023-05-19T09:53:11;2.42;;;1.80;;
54959;SDS011;40860;51.710;8.736;2023-05-19T09:57:16;6.82;;;2.28;;
54959;SDS011;40860;51.710;8.736;2023-05-19T10:01:19;7.22;;;2.78;;
54959;SDS011;40860;51.710;8.736;2023-05-19T10:05:23;6.03;;;2.40;;
54959;SDS011;40860;51.710;8.736;2023-05-19T10:09:28;5.57;;;2.30;;
54959;SDS011;40860;51.710;8.736;2023-05-19T10:13:32;7.95;;;2.42;;
54959;SDS011;40860;51.710;8.736;2023-05-19T10:17:39;6.05;;;2.10;;
54959;SDS011;40860;51.710;8.736;2023-05-19T10:21:42;4.68;;;1.95;;
54959;SDS011;40860;51.710;8.736;2023-05-19T10:25:45;4.10;;;1.77;;
54959;SDS011;40860;51.710;8.736;2023-05-19T10:29:52;3.35;;;2.05;;
54959;SDS011;40860;51.710;8.736;2023-05-19T10:34:08;2.78;;;1.77;;
54959;SDS011;40860;51.710;8.736;2023-05-19T10:38:26;4.20;;;1.60;;
54959;SDS011;40860;51.710;8.736;2023-05-19T10:42:35;5.35;;;2.00;;
54959;SDS011;40860;51.710;8.736;2023-05-19T10:46:44;3.50;;;1.67;;
54959;SDS011;40860;51.710;8.736;2023-05-19T10:50:47;3.42;;;1.83;;
54959;SDS011;40860;51.710;8.736;2023-05-19T10:54:54;2.80;;;1.60;;
54959;SDS011;40860;51.710;8.736;2023-05-19T10:58:58;2.80;;;1.52;;
54959;SDS011;40860;51.710;8.736;2023-05-19T11:03:12;4.38;;;2.13;;
54959;SDS011;40860;51.710;8.736;2023-05-19T11:07:16;2.97;;;1.63;;
54959;SDS011;40860;51.710;8.736;2023-05-19T11:11:20;3.20;;;1.52;;
54959;SDS011;40860;51.710;8.736;2023-05-19T11:15:24;2.95;;;1.60;;
54959;SDS011;40860;51.710;8.736;2023-05-19T11:19:30;3.80;;;2.00;;
54959;SDS011;40860;51.710;8.736;2023-05-19T11:23:36;4.30;;;1.77;;
54959;SDS011;40860;51.710;8.736;2023-05-19T11:27:40;4.50;;;1.98;;
54959;SDS011;40860;51.710;8.736;2023-05-19T11:31:47;2.55;;;1.50;;
54959;SDS011;40860;51.710;8.736;2023-05-19T11:35:52;3.35;;;1.90;;
54959;SDS011;40860;51.710;8.736;2023-05-19T11:40:00;4.85;;;1.85;;
54959;SDS011;40860;51.710;8.736;2023-05-19T11:44:08;4.13;;;1.83;;
54959;SDS011;40860;51.710;8.736;2023-05-19T11:48:12;3.08;;;1.98;;
54959;SDS011;40860;51.710;8.736;2023-05-19T11:52:18;2.72;;;1.38;;
54959;SDS011;40860;51.710;8.736;2023-05-19T11:56:23;13.80;;;1.98;;
54959;SDS011;40860;51.710;8.736;2023-05-19T12:00:26;3.40;;;1.90;;
54959;SDS011;40860;51.710;8.736;2023-05-19T12:04:30;3.60;;;1.83;;
54959;SDS011;40860;51.710;8.736;2023-05-19T12:08:35;3.63;;;1.77;;
54959;SDS011;40860;51.710;8.736;2023-05-19T12:12:39;3.88;;;1.73;;
54959;SDS011;40860;51.710;8.736;2023-05-19T12:16:45;3.83;;;1.80;;
54959;SDS011;40860;51.710;8.736;2023-05-19T12:20:48;3.17;;;1.67;;
54959;SDS011;40860;51.710;8.736;2023-05-19T12:24:52;3.08;;;2.17;;
54959;SDS011;40860;51.710;8.736;2023-05-19T12:28:56;4.43;;;1.88;;
54959;SDS011;40860;51.710;8.736;2023-05-19T12:33:00;3.70;;;1.67;;
54959;SDS011;40860;51.710;8.736;2023-05-19T12:37:04;4.80;;;1.80;;
54959;SDS011;40860;51.710;8.736;2023-05-19T12:41:10;10.27;;;2.03;;
54959;SDS011;40860;51.710;8.736;2023-05-19T12:45:13;4.55;;;1.75;;
54959;SDS011;40860;51.710;8.736;2023-05-19T12:49:17;3.15;;;1.80;;
54959;SDS011;40860;51.710;8.736;2023-05-19T12:53:20;4.22;;;2.20;;
54959;SDS011;40860;51.710;8.736;2023-05-19T12:57:25;2.47;;;1.70;;
54959;SDS011;40860;51.710;8.736;2023-05-19T13:01:29;2.88;;;1.60;;
54959;SDS011;40860;51.710;8.736;2023-05-19T13:05:33;3.50;;;1.67;;
54959;SDS011;40860;51.710;8.736;2023-05-19T13:09:39;3.42;;;1.90;;
54959;SDS011;40860;51.710;8.736;2023-05-19T13:13:43;3.45;;;1.90;;
54959;SDS011;40860;51.710;8.736;2023-05-19T13:17:47;3.45;;;1.58;;
54959;SDS011;40860;51.710;8.736;2023-05-19T13:21:50;7.65;;;2.17;;
54959;SDS011;40860;51.710;8.736;2023-05-19T13:25:53;2.45;;;1.70;;
54959;SDS011;40860;51.710;8.736;2023-05-19T13:29:57;2.63;;;1.60;;
54959;SDS011;40860;51.710;8.736;2023-05-19T13:34:01;3.17;;;2.08;;
54959;SDS011;40860;51.710;8.736;2023-05-19T13:38:04;5.32;;;1.77;;
54959;SDS011;40860;51.710;8.736;2023-05-19T13:42:08;2.50;;;1.50;;
54959;SDS011;40860;51.710;8.736;2023-05-19T13:46:12;3.15;;;1.83;;
54959;SDS011;40860;51.710;8.736;2023-05-19T13:50:15;2.75;;;1.90;;
54959;SDS011;40860;51.710;8.736;2023-05-19T13:54:18;4.13;;;2.03;;
54959;SDS011;40860;51.710;8.736;2023-05-19T13:58:21;5.30;;;1.60;;
54959;SDS011;40860;51.710;8.736;2023-05-19T14:02:25;14.57;;;2.50;;
54959;SDS011;40860;51.710;8.736;2023-05-19T14:06:28;7.97;;;2.45;;
54959;SDS011;40860;51.710;8.736;2023-05-19T14:10:32;4.65;;;1.70;;
54959;SDS011;40860;51.710;8.736;2023-05-19T14:14:35;2.25;;;1.65;;
54959;SDS011;40860;51.710;8.736;2023-05-19T14:18:39;4.03;;;1.85;;
54959;SDS011;40860;51.710;8.736;2023-05-19T14:22:42;5.00;;;1.65;;
54959;SDS011;40860;51.710;8.736;2023-05-19T14:26:46;4.18;;;1.80;;
54959;SDS011;40860;51.710;8.736;2023-05-19T14:30:50;3.38;;;1.95;;
54959;SDS011;40860;51.710;8.736;2023-05-19T14:34:54;3.72;;;1.98;;
54959;SDS011;40860;51.710;8.736;2023-05-19T14:38:57;2.50;;;1.77;;
54959;SDS011;40860;51.710;8.736;2023-05-19T14:43:00;2.80;;;1.73;;
54959;SDS011;40860;51.710;8.736;2023-05-19T14:47:03;2.30;;;1.70;;
54959;SDS011;40860;51.710;8.736;2023-05-19T14:51:09;3.55;;;1.50;;
54959;SDS011;40860;51.710;8.736;2023-05-19T14:55:12;3.55;;;1.83;;
54959;SDS011;40860;51.710;8.736;2023-05-19T14:59:14;2.40;;;1.70;;
54959;SDS011;40860;51.710;8.736;2023-05-19T15:03:18;2.67;;;1.73;;
54959;SDS011;40860;51.710;8.736;2023-05-19T15:07:22;2.28;;;1.77;;
54959;SDS011;40860;51.710;8.736;2023-05-19T15:11:25;3.72;;;1.85;;
54959;SDS011;40860;51.710;8.736;2023-05-19T15:15:28;1.77;;;1.50;;
54959;SDS011;40860;51.710;8.736;2023-05-19T15:19:31;3.88;;;1.95;;
54959;SDS011;40860;51.710;8.736;2023-05-19T15:23:36;3.20;;;1.80;;
54959;SDS011;40860;51.710;8.736;2023-05-19T15:27:39;1.83;;;1.40;;
54959;SDS011;40860;51.710;8.736;2023-05-19T15:31:41;5.82;;;1.92;;
54959;SDS011;40860;51.710;8.736;2023-05-19T15:35:45;3.08;;;1.65;;
54959;SDS011;40860;51.710;8.736;2023-05-19T15:39:55;2.90;;;1.88;;
54959;SDS011;40860;51.710;8.736;2023-05-19T15:43:58;3.22;;;2.08;;
54959;SDS011;40860;51.710;8.736;2023-05-19T15:48:02;1.90;;;1.60;;
54959;SDS011;40860;51.710;8.736;2023-05-19T15:52:06;5.35;;;2.10;;
54959;SDS011;40860;51.710;8.736;2023-05-19T15:56:10;4.30;;;1.85;;
54959;SDS011;40860;51.710;8.736;2023-05-19T16:00:14;4.07;;;1.85;;
54959;SDS011;40860;51.710;8.736;2023-05-19T16:04:17;4.30;;;1.77;;
54959;SDS011;40860;51.710;8.736;2023-05-19T16:08:20;2.85;;;1.33;;
54959;SDS011;40860;51.710;8.736;2023-05-19T16:12:24;3.10;;;1.75;;
54959;SDS011;40860;51.710;8.736;2023-05-19T16:16:28;2.45;;;1.70;;
54959;SDS011;40860;51.710;8.736;2023-05-19T16:20:31;2.53;;;1.65;;
54959;SDS011;40860;51.710;8.736;2023-05-19T16:24:34;5.05;;;1.77;;
54959;SDS011;40860;51.710;8.736;2023-05-19T16:28:38;3.42;;;1.80;;
54959;SDS011;40860;51.710;8.736;2023-05-19T16:32:41;5.97;;;1.90;;
54959;SDS011;40860;51.710;8.736;2023-05-19T16:36:44;1.65;;;1.55;;
54959;SDS011;40860;51.710;8.736;2023-05-19T16:40:47;2.85;;;1.83;;
54959;SDS011;40860;51.710;8.736;2023-05-19T16:44:51;2.70;;;1.50;;
54959;SDS011;40860;51.710;8.736;2023-05-19T16:48:54;3.88;;;1.85;;
54959;SDS011;40860;51.710;8.736;2023-05-19T16:52:57;3.05;;;1.80;;
54959;SDS011;40860;51.710;8.736;2023-05-19T16:57:00;1.83;;;1.73;;
54959;SDS011;40860;51.710;8.736;2023-05-19T17:01:05;4.47;;;1.50;;
54959;SDS011;40860;51.710;8.736;2023-05-19T17:05:08;4.65;;;2.00;;
54959;SDS011;40860;51.710;8.736;2023-05-19T17:09:12;4.22;;;2.20;;
54959;SDS011;40860;51.710;8.736;2023-05-19T17:13:15;2.58;;;1.70;;
54959;SDS011;40860;51.710;8.736;2023-05-19T17:17:19;2.35;;;1.70;;
54959;SDS011;40860;51.710;8.736;2023-05-19T17:21:22;2.15;;;1.63;;
54959;SDS011;40860;51.710;8.736;2023-05-19T17:25:25;2.40;;;1.80;;
54959;SDS011;40860;51.710;8.736;2023-05-19T17:29:27;2.10;;;1.90;;
54959;SDS011;40860;51.710;8.736;2023-05-19T17:33:32;1.77;;;1.63;;
54959;SDS011;40860;51.710;8.736;2023-05-19T17:37:35;2.63;;;2.38;;
54959;SDS011;40860;51.710;8.736;2023-05-19T17:41:37;3.25;;;2.20;;
54959;SDS011;40860;51.710;8.736;2023-05-19T17:45:40;2.53;;;1.80;;
54959;SDS011;40860;51.710;8.736;2023-05-19T17:49:45;2.47;;;1.80;;
54959;SDS011;40860;51.710;8.736;2023-05-19T17:53:49;2.20;;;1.92;;
54959;SDS011;40860;51.710;8.736;2023-05-19T17:57:52;3.72;;;1.77;;
54959;SDS011;40860;51.710;8.736;2023-05-19T18:01:56;2.35;;;1.77;;
54959;SDS011;40860;51.710;8.736;2023-05-19T18:06:00;3.80;;;1.90;;
54959;SDS011;40860;51.710;8.736;2023-05-19T18:10:04;2.30;;;1.90;;
54959;SDS011;40860;51.710;8.736;2023-05-19T18:14:08;4.75;;;1.55;;
54959;SDS011;40860;51.710;8.736;2023-05-19T18:18:11;2.35;;;1.48;;
54959;SDS011;40860;51.710;8.736;2023-05-19T18:22:15;2.70;;;1.45;;
54959;SDS011;40860;51.710;8.736;2023-05-19T18:26:18;2.30;;;1.92;;
54959;SDS011;40860;51.710;8.736;2023-05-19T18:30:22;2.20;;;1.80;;
54959;SDS011;40860;51.710;8.736;2023-05-19T18:34:25;3.72;;;2.20;;
54959;SDS011;40860;51.710;8.736;2023-05-19T18:38:31;1.85;;;1.40;;
54959;SDS011;40860;51.710;8.736;2023-05-19T18:42:34;2.00;;;1.80;;
54959;SDS011;40860;51.710;8.736;2023-05-19T18:46:38;2.13;;;1.60;;
54959;SDS011;40860;51.710;8.736;2023-05-19T18:50:41;4.20;;;2.03;;
54959;SDS011;40860;51.710;8.736;2023-05-19T18:54:46;4.80;;;2.15;;
54959;SDS011;40860;51.710;8.736;2023-05-19T18:58:50;3.33;;;1.92;;
54959;SDS011;40860;51.710;8.736;2023-05-19T19:02:53;2.35;;;2.10;;
54959;SDS011;40860;51.710;8.736;2023-05-19T19:06:56;5.25;;;2.75;;
54959;SDS011;40860;51.710;8.736;2023-05-19T19:11:01;4.35;;;2.20;;
54959;SDS011;40860;51.710;8.736;2023-05-19T19:15:06;4.80;;;2.13;;
54959;SDS011;40860;51.710;8.736;2023-05-19T19:19:10;3.78;;;2.30;;
54959;SDS011;40860;51.710;8.736;2023-05-19T19:23:13;4.93;;;2.50;;
54959;SDS011;40860;51.710;8.736;2023-05-19T19:27:17;4.03;;;2.50;;
54959;SDS011;40860;51.710;8.736;2023-05-19T19:31:21;4.57;;;2.70;;
54959;SDS011;40860;51.710;8.736;2023-05-19T19:35:26;3.28;;;2.63;;
54959;SDS011;40860;51.710;8.736;2023-05-19T19:39:29;4.93;;;3.05;;
54959;SDS011;40860;51.710;8.736;2023-05-19T19:43:34;4.10;;;2.90;;
54959;SDS011;40860;51.710;8.736;2023-05-19T19:47:37;5.28;;;2.80;;
54959;SDS011;40860;51.710;8.736;2023-05-19T19:51:40;5.90;;;2.78;;
54959;SDS011;40860;51.710;8.736;2023-05-19T19:55:43;5.00;;;2.50;;
54959;SDS011;40860;51.710;8.736;2023-05-19T19:59:49;4.07;;;2.75;;
54959;SDS011;40860;51.710;8.736;2023-05-19T20:03:55;4.97;;;2.70;;
54959;SDS011;40860;51.710;8.736;2023-05-19T20:07:58;4.00;;;2.60;;
54959;SDS011;40860;51.710;8.736;2023-05-19T20:12:02;6.40;;;2.67;;
54959;SDS011;40860;51.710;8.736;2023-05-19T20:16:06;5.90;;;2.83;;
54959;SDS011;40860;51.710;8.736;2023-05-19T20:20:10;7.88;;;3.00;;
54959;SDS011;40860;51.710;8.736;2023-05-19T20:24:14;4.20;;;2.92;;
54959;SDS011;40860;51.710;8.736;2023-05-19T20:28:17;5.53;;;3.05;;
54959;SDS011;40860;51.710;8.736;2023-05-19T20:32:25;5.57;;;2.85;;
54959;SDS011;40860;51.710;8.736;2023-05-19T20:36:28;4.47;;;2.83;;
54959;SDS011;40860;51.710;8.736;2023-05-19T20:40:32;4.38;;;2.78;;
54959;SDS011;40860;51.710;8.736;2023-05-19T20:44:35;4.47;;;3.05;;
54959;SDS011;40860;51.710;8.736;2023-05-19T20:48:39;3.50;;;2.83;;
54959;SDS011;40860;51.710;8.736;2023-05-19T20:52:42;4.80;;;3.47;;
54959;SDS011;40860;51.710;8.736;2023-05-19T20:56:46;7.47;;;4.70;;
54959;SDS011;40860;51.710;8.736;2023-05-19T21:00:49;5.88;;;3.70;;
54959;SDS011;40860;51.710;8.736;2023-05-19T21:04:59;4.38;;;2.97;;
54959;SDS011;40860;51.710;8.736;2023-05-19T21:09:03;3.80;;;2.95;;
54959;SDS011;40860;51.710;8.736;2023-05-19T21:13:07;4.05;;;3.20;;
54959;SDS011;40860;51.710;8.736;2023-05-19T21:17:10;3.97;;;3.20;;
54959;SDS011;40860;51.710;8.736;2023-05-19T21:21:14;3.97;;;3.25;;
54959;SDS011;40860;51.710;8.736;2023-05-19T21:25:18;4.40;;;2.90;;
54959;SDS011;40860;51.710;8.736;2023-05-19T21:29:24;5.32;;;2.95;;
54959;SDS011;40860;51.710;8.736;2023-05-19T21:33:27;5.10;;;3.40;;
54959;SDS011;40860;51.710;8.736;2023-05-19T21:37:33;3.53;;;3.17;;
54959;SDS011;40860;51.710;8.736;2023-05-19T21:41:36;3.47;;;3.03;;
54959;SDS011;40860;51.710;8.736;2023-05-19T21:45:39;4.20;;;3.35;;
54959;SDS011;40860;51.710;8.736;2023-05-19T21:49:42;5.13;;;2.85;;
54959;SDS011;40860;51.710;8.736;2023-05-19T21:53:47;7.40;;;3.50;;
54959;SDS011;40860;51.710;8.736;2023-05-19T21:57:49;3.30;;;2.60;;
54959;SDS011;40860;51.710;8.736;2023-05-19T22:01:53;4.35;;;3.08;;
54959;SDS011;40860;51.710;8.736;2023-05-19T22:05:56;5.05;;;2.85;;
54959;SDS011;40860;51.710;8.736;2023-05-19T22:10:00;4.40;;;2.80;;
54959;SDS011;40860;51.710;8.736;2023-05-19T22:14:03;6.45;;;3.03;;
54959;SDS011;40860;51.710;8.736;2023-05-19T22:18:06;5.20;;;2.88;;
54959;SDS011;40860;51.710;8.736;2023-05-19T22:22:09;3.13;;;2.83;;
54959;SDS011;40860;51.710;8.736;2023-05-19T22:26:16;4.55;;;3.05;;
54959;SDS011;40860;51.710;8.736;2023-05-19T22:30:22;3.67;;;3.10;;
54959;SDS011;40860;51.710;8.736;2023-05-19T22:34:27;6.13;;;3.50;;
54959;SDS011;40860;51.710;8.736;2023-05-19T22:38:30;4.18;;;3.10;;
54959;SDS011;40860;51.710;8.736;2023-05-19T22:42:35;3.38;;;3.08;;
54959;SDS011;40860;51.710;8.736;2023-05-19T22:46:38;3.72;;;3.00;;
54959;SDS011;40860;51.710;8.736;2023-05-19T22:50:41;3.03;;;2.70;;
54959;SDS011;40860;51.710;8.736;2023-05-19T22:54:44;3.65;;;2.65;;
54959;SDS011;40860;51.710;8.736;2023-05-19T22:58:48;4.25;;;2.85;;
54959;SDS011;40860;51.710;8.736;2023-05-19T23:02:51;7.35;;;2.80;;
54959;SDS011;40860;51.710;8.736;2023-05-19T23:06:54;2.60;;;2.40;;
54959;SDS011;40860;51.710;8.736;2023-05-19T23:10:58;2.75;;;2.47;;
54959;SDS011;40860;51.710;8.736;2023-05-19T23:15:04;3.08;;;2.55;;
54959;SDS011;40860;51.710;8.736;2023-05-19T23:19:08;3.70;;;2.58;;
54959;SDS011;40860;51.710;8.736;2023-05-19T23:23:11;3.75;;;2.45;;
54959;SDS011;40860;51.710;8.736;2023-05-19T23:27:13;3.88;;;2.60;;
54959;SDS011;40860;51.710;8.736;2023-05-19T23:31:18;3.33;;;2.97;;
54959;SDS011;40860;51.710;8.736;2023-05-19T23:35:21;4.57;;;3.20;;
54959;SDS011;40860;51.710;8.736;2023-05-19T23:39:24;3.42;;;2.72;;
54959;SDS011;40860;51.710;8.736;2023-05-19T23:43:27;3.08;;;2.40;;
54959;SDS011;40860;51.710;8.736;2023-05-19T23:47:33;4.15;;;2.55;;
54959;SDS011;40860;51.710;8.736;2023-05-19T23:51:36;4.07;;;2.90;;
54959;SDS011;40860;51.710;8.736;2023-05-19T23:55:39;3.83;;;3.40;;
54959;SDS011;40860;51.710;8.736;2023-05-19T23:59:42;4.45;;;3.08;;
